Silver Creek Plunge, Idaho
Current Conditions -  °F | °C
As of 10:53 AM on Thursday 23 Oct 2014 (Local Time) from KBOI Reporting Station
Light Rain Light Rain  
Wind Chill: 55°   Ceiling: 8000
Heat Index: 55°   Visibility: 10mi
Dew Point: 47°   Wind: 12mph
Humidity: 74%   Direction: 120°ESE
Pressure: 30.05"   Gusts: NA
Location:  44.07°N, 115.488°W
Report Text: KBOI 231653Z 12010KT 10SM -RA OVC080 13/08 A3005 RMK AO2 SLP166 P0000 T01280083
Loading
Personal Weather Stations






























Interactive Weather Map
Tropical Storm Tracking
New forecast layout! Learn more

10-Day Weather Forecast

Advertisements
Track Severe Weather on mobile